createdAt,value
2018-09-05T00:01:02.259Z,4.90
2018-09-05T00:03:35.258Z,4.80
2018-09-05T00:06:07.940Z,4.27
2018-09-05T00:08:41.095Z,5.63
2018-09-05T00:11:14.324Z,7.53
2018-09-05T00:13:48.271Z,4.17
2018-09-05T00:16:21.460Z,4.80
2018-09-05T00:18:54.127Z,4.40
2018-09-05T00:21:27.475Z,4.40
2018-09-05T00:24:00.227Z,5.13
2018-09-05T00:26:33.162Z,5.33
2018-09-05T00:29:05.809Z,4.77
2018-09-05T00:31:39.037Z,4.27
2018-09-05T00:34:12.554Z,5.83
2018-09-05T00:36:45.004Z,3.63
2018-09-05T00:39:18.353Z,4.33
2018-09-05T00:41:52.345Z,4.27
2018-09-05T00:44:24.887Z,4.57
2018-09-05T00:46:57.498Z,4.97
2018-09-05T00:49:30.733Z,4.10
2018-09-05T00:52:03.288Z,4.30
2018-09-05T00:54:36.921Z,3.93
2018-09-05T00:57:10.499Z,4.30
2018-09-05T00:59:43.426Z,4.43
2018-09-05T01:02:16.483Z,4.00
2018-09-05T01:04:49.544Z,4.40
2018-09-05T01:07:26.435Z,5.40
2018-09-05T01:09:58.999Z,3.80
2018-09-05T01:12:32.242Z,3.70
2018-09-05T01:15:04.613Z,4.93
2018-09-05T01:17:41.005Z,4.43
2018-09-05T01:20:14.361Z,5.23
2018-09-05T01:22:48.608Z,3.77
2018-09-05T01:25:22.904Z,4.60
2018-09-05T01:27:55.450Z,5.63
2018-09-05T01:30:28.875Z,3.73
2018-09-05T01:33:01.796Z,4.23
2018-09-05T01:35:34.113Z,4.00
2018-09-05T01:38:06.695Z,4.47
2018-09-05T01:40:39.413Z,4.03
2018-09-05T01:43:12.173Z,4.10
2018-09-05T01:45:45.235Z,4.40
2018-09-05T01:48:18.112Z,4.50
2018-09-05T01:50:50.862Z,6.47
2018-09-05T01:53:23.631Z,6.77
2018-09-05T01:55:56.052Z,5.13
2018-09-05T01:58:28.364Z,4.43
2018-09-05T02:01:01.769Z,4.10
2018-09-05T02:03:34.591Z,5.13
2018-09-05T02:06:06.941Z,7.07
2018-09-05T02:08:39.912Z,7.23
2018-09-05T02:11:12.303Z,10.07
2018-09-05T02:13:44.952Z,5.67
2018-09-05T02:16:18.737Z,4.57
2018-09-05T02:18:51.498Z,4.30
2018-09-05T02:21:24.022Z,5.77
2018-09-05T02:23:56.613Z,5.17
2018-09-05T02:26:28.702Z,4.40
2018-09-05T02:29:01.355Z,4.73
2018-09-05T02:31:34.396Z,4.80
2018-09-05T02:34:06.841Z,5.63
2018-09-05T02:36:38.980Z,5.67
2018-09-05T02:39:12.035Z,5.93
2018-09-05T02:41:46.220Z,6.03
2018-09-05T02:44:22.187Z,4.97
2018-09-05T02:46:55.048Z,4.90
2018-09-05T02:49:27.205Z,5.83
2018-09-05T02:51:59.289Z,4.50
2018-09-05T02:54:31.592Z,4.93
2018-09-05T02:57:04.523Z,4.30
2018-09-05T02:59:37.151Z,4.90
2018-09-05T03:02:09.251Z,4.77
2018-09-05T03:04:41.614Z,5.50
2018-09-05T03:07:14.459Z,7.70
2018-09-05T03:09:47.384Z,11.53
2018-09-05T03:12:23.071Z,7.90
2018-09-05T03:14:55.817Z,6.60
2018-09-05T03:17:28.266Z,8.60
2018-09-05T03:20:00.634Z,7.17
2018-09-05T03:22:33.064Z,9.17
2018-09-05T03:25:05.579Z,12.97
2018-09-05T03:27:38.829Z,8.37
2018-09-05T03:30:12.209Z,34.03
2018-09-05T03:32:45.354Z,12.83
2018-09-05T03:35:18.322Z,7.03
2018-09-05T03:37:50.314Z,6.87
2018-09-05T03:40:22.482Z,7.33
2018-09-05T03:42:55.576Z,8.30
2018-09-05T03:45:27.910Z,9.57
2018-09-05T03:48:00.970Z,6.60
2018-09-05T03:50:33.815Z,6.13
2018-09-05T03:53:06.225Z,6.50
2018-09-05T03:55:38.758Z,8.03
2018-09-05T03:58:12.027Z,5.40
2018-09-05T04:00:44.240Z,7.27
2018-09-05T04:03:17.941Z,5.30
2018-09-05T04:05:50.332Z,6.40
2018-09-05T04:08:22.811Z,6.10
2018-09-05T04:10:55.515Z,7.20
2018-09-05T04:13:27.840Z,7.17
2018-09-05T04:16:00.143Z,4.90
2018-09-05T04:18:33.658Z,5.73
2018-09-05T04:21:06.425Z,6.20
2018-09-05T04:23:46.206Z,5.10
2018-09-05T04:26:19.775Z,5.93
2018-09-05T04:28:52.673Z,6.03
2018-09-05T04:31:25.002Z,5.83
2018-09-05T04:33:57.760Z,5.97
2018-09-05T04:36:30.456Z,5.80
2018-09-05T04:39:03.737Z,6.33
2018-09-05T04:41:35.852Z,6.10
2018-09-05T04:44:08.813Z,5.73
2018-09-05T04:46:42.276Z,5.83
2018-09-05T04:49:14.892Z,5.80
2018-09-05T04:51:47.780Z,5.70
2018-09-05T04:54:20.604Z,5.83
2018-09-05T04:56:53.324Z,6.57
2018-09-05T04:59:25.387Z,5.83
2018-09-05T05:01:57.392Z,5.87
2018-09-05T05:04:29.340Z,5.87
2018-09-05T05:07:01.766Z,6.93
2018-09-05T05:09:33.902Z,5.30
2018-09-05T05:12:05.843Z,5.90
2018-09-05T05:14:38.092Z,5.77
2018-09-05T05:17:10.694Z,5.47
2018-09-05T05:19:43.046Z,5.97
2018-09-05T05:22:15.763Z,7.77
2018-09-05T05:24:47.645Z,6.57
2018-09-05T05:27:20.281Z,8.00
2018-09-05T05:29:52.525Z,9.20
2018-09-05T05:32:24.948Z,10.03
2018-09-05T05:35:00.053Z,9.87
2018-09-05T05:37:32.335Z,10.23
2018-09-05T05:40:06.835Z,9.97
2018-09-05T05:42:39.168Z,10.57
2018-09-05T05:45:11.549Z,11.57
2018-09-05T05:47:43.619Z,10.73
2018-09-05T05:50:15.935Z,11.13
2018-09-05T05:52:48.419Z,11.73
2018-09-05T05:55:21.122Z,10.87
2018-09-05T05:57:53.690Z,10.00
2018-09-05T06:00:27.170Z,10.03
2018-09-05T06:02:59.248Z,11.87
2018-09-05T06:05:32.027Z,10.77
2018-09-05T06:08:04.340Z,10.80
2018-09-05T06:10:36.587Z,11.23
2018-09-05T06:13:08.879Z,12.70
2018-09-05T06:15:41.677Z,10.20
2018-09-05T06:18:14.017Z,12.10
2018-09-05T06:20:46.193Z,12.13
2018-09-05T06:23:18.454Z,11.83
2018-09-05T06:25:50.935Z,12.53
2018-09-05T06:28:22.916Z,11.27
2018-09-05T06:30:55.752Z,11.07
2018-09-05T06:33:28.085Z,13.87
2018-09-05T06:36:00.537Z,13.10
2018-09-05T06:38:32.532Z,12.47
2018-09-05T06:41:04.638Z,12.37
2018-09-05T06:43:37.032Z,13.80
2018-09-05T06:46:08.790Z,11.30
2018-09-05T06:48:41.301Z,11.93
2018-09-05T06:51:13.302Z,11.30
2018-09-05T06:53:45.448Z,12.33
2018-09-05T06:56:17.921Z,11.40
2018-09-05T06:58:49.839Z,11.13
2018-09-05T07:01:21.789Z,11.93
2018-09-05T07:03:54.417Z,11.57
2018-09-05T07:06:26.584Z,10.47
2018-09-05T07:08:58.937Z,10.93
2018-09-05T07:11:32.160Z,10.57
2018-09-05T07:14:05.333Z,11.50
2018-09-05T07:16:38.416Z,11.53
2018-09-05T07:19:11.828Z,10.80
2018-09-05T07:21:44.142Z,12.23
2018-09-05T07:24:16.290Z,12.33
2018-09-05T07:26:48.431Z,11.07
2018-09-05T07:29:20.611Z,12.13
2018-09-05T07:31:53.072Z,12.40
2018-09-05T07:34:25.150Z,10.87
2018-09-05T07:36:57.526Z,11.37
2018-09-05T07:39:29.750Z,10.73
2018-09-05T07:42:01.908Z,11.53
2018-09-05T07:44:34.425Z,11.93
2018-09-05T07:47:06.672Z,10.90
2018-09-05T07:49:39.537Z,12.27
2018-09-05T07:52:11.929Z,11.70
2018-09-05T07:54:44.306Z,11.97
2018-09-05T07:57:16.410Z,11.13
2018-09-05T07:59:49.537Z,12.00
2018-09-05T08:02:21.524Z,12.47
2018-09-05T08:04:54.200Z,11.70
2018-09-05T08:07:26.739Z,10.87
2018-09-05T08:09:58.686Z,12.87
2018-09-05T08:12:31.769Z,11.27
2018-09-05T08:15:04.302Z,11.93
2018-09-05T08:17:36.589Z,12.70
2018-09-05T08:20:09.002Z,13.30
2018-09-05T08:22:41.343Z,12.50
2018-09-05T08:25:13.928Z,11.37
2018-09-05T08:27:47.455Z,11.70
2018-09-05T08:30:20.166Z,11.80
2018-09-05T08:32:53.442Z,11.77
2018-09-05T08:35:26.166Z,12.73
2018-09-05T08:37:58.500Z,10.93
2018-09-05T08:40:30.492Z,10.20
2018-09-05T08:43:03.299Z,10.10
2018-09-05T08:45:36.009Z,10.43
2018-09-05T08:48:08.125Z,12.03
2018-09-05T08:50:40.336Z,11.27
2018-09-05T08:53:12.391Z,10.23
2018-09-05T08:55:45.253Z,12.00
2018-09-05T08:58:17.342Z,10.53
2018-09-05T09:00:49.675Z,12.13
2018-09-05T09:03:21.853Z,10.03
2018-09-05T09:05:54.089Z,11.87
2018-09-05T09:08:26.376Z,9.83
2018-09-05T09:10:58.587Z,8.87
2018-09-05T09:13:31.131Z,9.43
2018-09-05T09:16:02.948Z,9.37
2018-09-05T09:18:35.503Z,9.20
2018-09-05T09:21:07.796Z,10.33
2018-09-05T09:23:39.907Z,9.90
2018-09-05T09:26:12.148Z,9.30
2018-09-05T09:28:44.735Z,9.40
2018-09-05T09:31:17.015Z,10.40
2018-09-05T09:33:49.039Z,10.63
2018-09-05T09:36:20.819Z,11.60
2018-09-05T09:38:53.108Z,10.40
2018-09-05T09:41:25.347Z,12.07
2018-09-05T09:43:57.413Z,11.60
2018-09-05T09:46:29.604Z,11.30
2018-09-05T09:49:01.628Z,12.43
2018-09-05T09:51:33.658Z,11.87
2018-09-05T09:54:05.997Z,12.23
2018-09-05T09:56:38.615Z,12.67
2018-09-05T09:59:10.788Z,12.30
2018-09-05T10:01:47.671Z,12.43
2018-09-05T10:04:24.713Z,12.27
2018-09-05T10:07:01.821Z,10.47
2018-09-05T10:09:38.592Z,11.60
2018-09-05T10:12:15.307Z,12.20
2018-09-05T10:15:07.500Z,11.30
2018-09-05T10:17:39.692Z,10.30
2018-09-05T10:20:11.636Z,10.83
2018-09-05T10:22:45.605Z,10.90
2018-09-05T10:25:18.120Z,10.83
2018-09-05T10:27:50.458Z,10.33
2018-09-05T10:30:22.108Z,10.50
2018-09-05T10:32:54.362Z,10.33
2018-09-05T10:35:26.557Z,9.43
2018-09-05T10:37:58.790Z,9.90
2018-09-05T10:40:30.971Z,8.30
2018-09-05T10:43:03.069Z,9.00
2018-09-05T10:45:35.235Z,9.37
2018-09-05T10:48:10.195Z,9.60
2018-09-05T10:50:42.340Z,8.73
2018-09-05T10:53:14.244Z,9.23
2018-09-05T10:55:46.400Z,9.70
2018-09-05T10:58:18.391Z,10.30
2018-09-05T11:00:50.330Z,10.07
2018-09-05T11:03:22.301Z,9.73
2018-09-05T11:05:54.515Z,10.10
2018-09-05T11:08:26.586Z,10.60
2018-09-05T11:10:58.515Z,10.37
2018-09-05T11:13:30.715Z,9.30
2018-09-05T11:16:03.034Z,9.53
2018-09-05T11:18:35.048Z,9.40
2018-09-05T11:21:07.537Z,10.07
2018-09-05T11:23:39.709Z,8.30
2018-09-05T11:26:11.816Z,8.50
2018-09-05T11:28:44.144Z,9.30
2018-09-05T11:31:17.193Z,8.63
2018-09-05T11:33:49.634Z,9.13
2018-09-05T11:36:21.977Z,8.37
2018-09-05T11:38:54.051Z,9.27
2018-09-05T11:41:26.527Z,8.60
2018-09-05T11:43:59.705Z,8.63
2018-09-05T11:46:31.944Z,8.47
2018-09-05T11:49:04.186Z,8.47
2018-09-05T11:51:36.296Z,9.17
2018-09-05T11:54:09.594Z,9.47
2018-09-05T11:56:41.753Z,9.30
2018-09-05T11:59:13.765Z,8.67
2018-09-05T12:01:45.314Z,8.60
2018-09-05T12:04:17.545Z,8.93
2018-09-05T12:06:49.879Z,9.00
2018-09-05T12:09:21.955Z,9.77
2018-09-05T12:11:53.762Z,9.30
2018-09-05T12:14:25.911Z,9.60
2018-09-05T12:16:57.839Z,10.27
2018-09-05T12:19:29.731Z,9.80
2018-09-05T12:22:02.231Z,10.10
2018-09-05T12:24:34.104Z,10.40
2018-09-05T12:27:07.829Z,9.67
2018-09-05T12:29:39.741Z,9.17
2018-09-05T12:32:11.850Z,9.00
2018-09-05T12:34:44.450Z,9.40
2018-09-05T12:37:16.547Z,10.80
2018-09-05T12:39:49.050Z,9.10
2018-09-05T12:42:20.892Z,9.27
2018-09-05T12:44:52.964Z,8.10
2018-09-05T12:47:25.023Z,8.43
2018-09-05T12:49:57.116Z,8.23
2018-09-05T12:52:29.181Z,7.63
2018-09-05T12:55:01.289Z,7.87
2018-09-05T12:57:33.703Z,7.47
2018-09-05T13:00:06.080Z,8.83
2018-09-05T13:02:38.503Z,10.37
2018-09-05T13:05:10.852Z,9.87
2018-09-05T13:07:42.945Z,8.70
2018-09-05T13:10:14.956Z,7.90
2018-09-05T13:12:47.629Z,9.70
2018-09-05T13:15:19.556Z,7.43
2018-09-05T13:17:51.844Z,7.33
2018-09-05T13:20:24.345Z,8.43
2018-09-05T13:22:56.979Z,8.90
2018-09-05T13:25:29.269Z,8.80
2018-09-05T13:28:01.961Z,8.23
2018-09-05T13:30:34.474Z,8.53
2018-09-05T13:33:06.787Z,8.77
2018-09-05T13:35:39.045Z,9.83
2018-09-05T13:38:11.529Z,10.47
2018-09-05T13:40:43.496Z,9.90
2018-09-05T13:43:15.576Z,10.83
2018-09-05T13:45:47.843Z,10.80
2018-09-05T13:48:19.966Z,9.83
2018-09-05T13:50:53.075Z,10.50
2018-09-05T13:53:25.676Z,11.27
2018-09-05T13:55:57.879Z,12.20
2018-09-05T13:58:30.619Z,11.17
2018-09-05T14:01:02.705Z,11.33
2018-09-05T14:03:34.935Z,12.40
2018-09-05T14:06:07.515Z,12.73
2018-09-05T14:08:40.860Z,12.93
2018-09-05T14:11:13.169Z,12.60
2018-09-05T14:13:45.384Z,13.47
2018-09-05T14:16:17.712Z,13.20
2018-09-05T14:18:50.673Z,13.23
2018-09-05T14:21:22.864Z,13.40
2018-09-05T14:23:54.938Z,12.93
2018-09-05T14:26:27.163Z,13.00
2018-09-05T14:28:59.774Z,13.03
2018-09-05T14:31:32.063Z,12.30
2018-09-05T14:34:04.446Z,12.33
2018-09-05T14:36:37.189Z,13.00
2018-09-05T14:39:12.855Z,16.77
2018-09-05T14:41:45.328Z,12.47
2018-09-05T14:44:17.853Z,11.87
2018-09-05T14:46:50.183Z,13.77
2018-09-05T14:49:22.319Z,12.20
2018-09-05T14:51:54.686Z,13.10
2018-09-05T14:54:26.993Z,12.47
2018-09-05T14:56:59.703Z,11.57
2018-09-05T14:59:33.293Z,11.90
2018-09-05T15:02:05.473Z,11.57
2018-09-05T15:04:37.703Z,11.80
2018-09-05T15:07:14.643Z,11.70
2018-09-05T15:09:47.165Z,11.50
2018-09-05T15:12:19.333Z,11.83
2018-09-05T15:14:51.532Z,12.37
2018-09-05T15:17:23.999Z,12.40
2018-09-05T15:19:56.123Z,11.90
2018-09-05T15:22:28.132Z,12.37
2018-09-05T15:25:00.455Z,17.70
2018-09-05T15:27:32.782Z,14.10
2018-09-05T15:30:04.941Z,13.67
2018-09-05T15:32:38.425Z,13.67
2018-09-05T15:35:10.683Z,14.43
2018-09-05T15:37:42.739Z,14.13
2018-09-05T15:40:14.907Z,13.47
2018-09-05T15:42:46.808Z,22.63
2018-09-05T15:45:19.083Z,15.57
2018-09-05T15:47:51.019Z,20.73
2018-09-05T15:50:23.587Z,22.20
2018-09-05T15:52:55.931Z,14.80
2018-09-05T15:55:28.577Z,17.53
2018-09-05T15:58:01.938Z,19.57
2018-09-05T16:00:34.232Z,15.40
2018-09-05T16:03:06.538Z,21.80
2018-09-05T16:05:39.082Z,27.87
2018-09-05T16:08:11.789Z,16.73
2018-09-05T16:10:44.026Z,15.17
2018-09-05T16:13:17.491Z,29.33
2018-09-05T16:15:50.070Z,23.23
2018-09-05T16:18:22.417Z,23.80
2018-09-05T16:20:54.549Z,21.50
2018-09-05T16:23:27.713Z,18.73
2018-09-05T16:26:00.068Z,17.20
2018-09-05T16:28:32.441Z,17.37
2018-09-05T16:31:04.960Z,18.63
2018-09-05T16:33:37.370Z,15.70
2018-09-05T16:36:10.157Z,14.83
2018-09-05T16:38:42.677Z,15.67
2018-09-05T16:41:15.006Z,14.50
2018-09-05T16:43:48.233Z,14.83
2018-09-05T16:46:20.321Z,17.50
2018-09-05T16:48:52.655Z,24.57
2018-09-05T16:51:25.067Z,22.83
2018-09-05T16:53:57.836Z,23.17
2018-09-05T16:56:31.544Z,27.00
2018-09-05T16:59:04.171Z,22.33
2018-09-05T17:01:36.712Z,18.57
2018-09-05T17:04:09.088Z,17.67
2018-09-05T17:06:42.008Z,24.80
2018-09-05T17:09:14.516Z,24.10
2018-09-05T17:11:47.158Z,28.63
2018-09-05T17:14:20.427Z,21.87
2018-09-05T17:16:52.977Z,22.37
2018-09-05T17:19:25.376Z,17.33
2018-09-05T17:21:57.606Z,18.77
2018-09-05T17:24:30.128Z,15.17
2018-09-05T17:27:02.438Z,15.33
2018-09-05T17:29:35.861Z,15.00
2018-09-05T17:32:08.040Z,14.30
2018-09-05T17:34:40.365Z,14.37
2018-09-05T17:37:12.539Z,14.53
2018-09-05T17:39:44.690Z,14.00
2018-09-05T17:42:17.171Z,13.93
2018-09-05T17:44:49.514Z,14.80
2018-09-05T17:47:21.606Z,14.53
2018-09-05T17:49:53.750Z,11.93
2018-09-05T17:52:25.759Z,12.30
2018-09-05T17:54:57.941Z,11.90
2018-09-05T17:57:29.931Z,13.63
2018-09-05T18:00:02.126Z,10.40
2018-09-05T18:02:34.617Z,9.47
2018-09-05T18:05:06.966Z,8.67
2018-09-05T18:07:39.359Z,8.80
2018-09-05T18:10:11.697Z,10.40
2018-09-05T18:12:43.873Z,10.07
2018-09-05T18:15:16.081Z,12.00
2018-09-05T18:17:48.339Z,10.20
2018-09-05T18:20:20.696Z,10.20
2018-09-05T18:22:53.157Z,9.97
2018-09-05T18:25:26.203Z,9.57
2018-09-05T18:27:58.936Z,11.63
2018-09-05T18:30:32.521Z,9.43
2018-09-05T18:33:05.134Z,8.43
2018-09-05T18:35:37.365Z,10.97
2018-09-05T18:38:09.613Z,9.63
2018-09-05T18:40:42.067Z,10.97
2018-09-05T18:43:14.132Z,12.37
2018-09-05T18:45:46.274Z,12.67
2018-09-05T18:48:18.514Z,12.77
2018-09-05T18:50:50.767Z,12.93
2018-09-05T18:53:23.138Z,14.63
2018-09-05T18:55:55.653Z,15.00
2018-09-05T18:58:27.866Z,15.20
2018-09-05T19:01:00.050Z,15.87
2018-09-05T19:03:32.360Z,17.43
2018-09-05T19:06:04.631Z,18.13
2018-09-05T19:11:15.175Z,19.00
2018-09-05T19:13:47.931Z,16.27
2018-09-05T19:16:20.273Z,16.80
2018-09-05T19:18:52.593Z,15.77
2018-09-05T19:21:26.887Z,17.07
2018-09-05T19:23:59.365Z,16.17
2018-09-05T19:26:31.796Z,17.63
2018-09-05T19:29:05.411Z,15.83
2018-09-05T19:31:38.092Z,17.97
2018-09-05T19:34:10.466Z,16.43
2018-09-05T19:36:43.118Z,16.37
2018-09-05T19:39:15.679Z,17.40
2018-09-05T19:41:47.849Z,19.03
2018-09-05T19:44:20.635Z,16.07
2018-09-05T19:46:53.131Z,16.43
2018-09-05T19:49:25.412Z,18.93
2018-09-05T19:51:57.869Z,16.57
2018-09-05T19:54:30.829Z,16.70
2018-09-05T19:57:02.885Z,16.77
2018-09-05T19:59:35.515Z,15.17
2018-09-05T20:02:08.423Z,16.27
2018-09-05T20:04:40.492Z,17.90
2018-09-05T20:07:13.770Z,15.60
2018-09-05T20:09:46.914Z,16.77
2018-09-05T20:12:19.384Z,16.53
2018-09-05T20:14:51.472Z,16.47
2018-09-05T20:17:23.622Z,15.60
2018-09-05T20:19:56.129Z,16.40
2018-09-05T20:22:29.282Z,15.40
2018-09-05T20:25:01.473Z,17.87
2018-09-05T20:27:33.788Z,17.93
2018-09-05T20:30:06.002Z,15.17
2018-09-05T20:32:38.376Z,16.03
2018-09-05T20:35:10.819Z,15.33
2018-09-05T20:37:43.167Z,14.47
2018-09-05T20:40:15.067Z,14.17
2018-09-05T20:42:47.270Z,14.30
2018-09-05T20:45:19.385Z,13.73
2018-09-05T20:47:51.507Z,14.43
2018-09-05T20:50:23.883Z,14.37
2018-09-05T20:52:55.996Z,13.97
2018-09-05T20:55:28.718Z,13.60
2018-09-05T20:58:01.587Z,15.17
2018-09-05T21:00:33.477Z,15.00
2018-09-05T21:03:05.497Z,14.27
2018-09-05T21:05:37.756Z,14.47
2018-09-05T21:08:09.725Z,15.23
2018-09-05T21:10:41.526Z,15.03
2018-09-05T21:13:13.903Z,15.53
2018-09-05T21:15:45.948Z,13.33
2018-09-05T21:18:18.338Z,13.27
2018-09-05T21:20:51.425Z,14.93
2018-09-05T21:23:23.273Z,13.93
2018-09-05T21:25:55.014Z,14.63
2018-09-05T21:28:26.934Z,14.03
2018-09-05T21:30:59.142Z,14.90
2018-09-05T21:33:31.353Z,13.33
2018-09-05T21:36:03.627Z,14.30
2018-09-05T21:38:35.854Z,14.83
2018-09-05T21:41:09.788Z,13.63
2018-09-05T21:43:41.967Z,16.13
2018-09-05T21:46:14.275Z,15.40
2018-09-05T21:48:46.737Z,18.00
2018-09-05T21:51:19.973Z,13.87
2018-09-05T21:53:51.922Z,12.50
2018-09-05T21:56:24.021Z,14.70
2018-09-05T21:58:56.896Z,14.00
2018-09-05T22:01:29.003Z,12.90
2018-09-05T22:04:01.313Z,12.83
2018-09-05T22:06:33.261Z,12.30
2018-09-05T22:09:07.006Z,12.07
2018-09-05T22:11:39.192Z,12.60
2018-09-05T22:14:13.645Z,14.03
2018-09-05T22:16:45.939Z,13.23
2018-09-05T22:19:17.969Z,12.60
2018-09-05T22:21:49.928Z,13.53
2018-09-05T22:24:21.731Z,12.27
2018-09-05T22:26:53.847Z,11.70
2018-09-05T22:29:25.864Z,12.50
2018-09-05T22:31:57.865Z,12.30
2018-09-05T22:34:29.773Z,14.03
2018-09-05T22:37:01.785Z,15.40
2018-09-05T22:39:33.831Z,12.23
2018-09-05T22:42:06.887Z,13.37
2018-09-05T22:44:56.737Z,13.03
2018-09-05T22:48:47.194Z,12.20
2018-09-05T22:53:50.529Z,12.27
2018-09-05T22:56:48.681Z,11.63
2018-09-05T23:01:47.686Z,12.43
2018-09-05T23:09:54.102Z,13.60
2018-09-05T23:12:42.256Z,12.03
2018-09-05T23:17:31.773Z,13.40
2018-09-05T23:20:27.421Z,13.37
2018-09-05T23:23:15.457Z,13.67
2018-09-05T23:25:47.153Z,13.53
2018-09-05T23:28:20.009Z,13.13
2018-09-05T23:30:51.894Z,14.33
2018-09-05T23:33:23.821Z,13.27
2018-09-05T23:35:55.574Z,13.50
2018-09-05T23:38:27.466Z,14.30
2018-09-05T23:40:59.499Z,14.33
2018-09-05T23:43:31.578Z,13.03
2018-09-05T23:46:03.575Z,14.20
2018-09-05T23:48:35.550Z,13.20
2018-09-05T23:51:08.417Z,13.77
2018-09-05T23:53:40.414Z,15.20
2018-09-05T23:56:12.569Z,14.67
2018-09-05T23:58:44.578Z,16.57
